sensor_id;sensor_type;location;lat;lon;timestamp;temperature;humidity
19232;DHT22;9750;48.730;10.294;2023-06-05T00:01:39;16.60;71.20
19232;DHT22;9750;48.730;10.294;2023-06-05T00:04:07;16.60;71.30
19232;DHT22;9750;48.730;10.294;2023-06-05T00:06:36;16.60;72.90
19232;DHT22;9750;48.730;10.294;2023-06-05T00:09:03;16.50;73.20
19232;DHT22;9750;48.730;10.294;2023-06-05T00:11:31;16.50;73.40
19232;DHT22;9750;48.730;10.294;2023-06-05T00:13:58;16.50;73.10
19232;DHT22;9750;48.730;10.294;2023-06-05T00:16:26;16.40;71.90
19232;DHT22;9750;48.730;10.294;2023-06-05T00:18:53;16.40;72.80
19232;DHT22;9750;48.730;10.294;2023-06-05T00:21:20;16.40;73.10
19232;DHT22;9750;48.730;10.294;2023-06-05T00:23:50;16.30;73.40
19232;DHT22;9750;48.730;10.294;2023-06-05T00:26:17;16.30;73.30
19232;DHT22;9750;48.730;10.294;2023-06-05T00:28:44;16.30;73.30
19232;DHT22;9750;48.730;10.294;2023-06-05T00:31:12;16.30;73.60
19232;DHT22;9750;48.730;10.294;2023-06-05T00:33:40;16.20;74.30
19232;DHT22;9750;48.730;10.294;2023-06-05T00:36:08;16.10;74.50
19232;DHT22;9750;48.730;10.294;2023-06-05T00:38:35;16.10;74.60
19232;DHT22;9750;48.730;10.294;2023-06-05T00:41:04;16.10;75.10
19232;DHT22;9750;48.730;10.294;2023-06-05T00:43:31;16.00;73.90
19232;DHT22;9750;48.730;10.294;2023-06-05T00:46:02;16.00;74.00
19232;DHT22;9750;48.730;10.294;2023-06-05T00:48:29;16.00;74.90
19232;DHT22;9750;48.730;10.294;2023-06-05T00:50:58;16.00;74.20
19232;DHT22;9750;48.730;10.294;2023-06-05T00:53:26;15.90;75.20
19232;DHT22;9750;48.730;10.294;2023-06-05T00:55:54;15.80;75.40
19232;DHT22;9750;48.730;10.294;2023-06-05T00:58:25;15.80;75.40
19232;DHT22;9750;48.730;10.294;2023-06-05T01:00:52;15.80;76.00
19232;DHT22;9750;48.730;10.294;2023-06-05T01:03:21;15.70;76.50
19232;DHT22;9750;48.730;10.294;2023-06-05T01:05:50;15.70;76.70
19232;DHT22;9750;48.730;10.294;2023-06-05T01:11:40;15.60;76.40
19232;DHT22;9750;48.730;10.294;2023-06-05T01:14:15;15.60;76.80
19232;DHT22;9750;48.730;10.294;2023-06-05T01:16:48;15.50;76.30
19232;DHT22;9750;48.730;10.294;2023-06-05T01:19:17;15.50;76.50
19232;DHT22;9750;48.730;10.294;2023-06-05T01:21:45;15.50;75.70
19232;DHT22;9750;48.730;10.294;2023-06-05T01:24:14;15.50;75.90
19232;DHT22;9750;48.730;10.294;2023-06-05T01:26:48;15.50;75.80
19232;DHT22;9750;48.730;10.294;2023-06-05T01:29:23;15.40;76.80
19232;DHT22;9750;48.730;10.294;2023-06-05T01:31:55;15.40;76.70
19232;DHT22;9750;48.730;10.294;2023-06-05T01:34:25;15.40;76.90
19232;DHT22;9750;48.730;10.294;2023-06-05T01:36:55;15.30;76.80
19232;DHT22;9750;48.730;10.294;2023-06-05T01:39:25;15.30;76.30
19232;DHT22;9750;48.730;10.294;2023-06-05T01:41:54;15.30;77.20
19232;DHT22;9750;48.730;10.294;2023-06-05T01:44:22;15.30;76.70
19232;DHT22;9750;48.730;10.294;2023-06-05T01:46:49;15.20;77.40
19232;DHT22;9750;48.730;10.294;2023-06-05T01:49:17;15.20;77.00
19232;DHT22;9750;48.730;10.294;2023-06-05T01:51:46;15.20;77.50
19232;DHT22;9750;48.730;10.294;2023-06-05T01:54:13;15.20;77.30
19232;DHT22;9750;48.730;10.294;2023-06-05T01:56:43;15.20;77.40
19232;DHT22;9750;48.730;10.294;2023-06-05T01:59:10;15.10;77.90
19232;DHT22;9750;48.730;10.294;2023-06-05T02:01:37;15.10;78.30
19232;DHT22;9750;48.730;10.294;2023-06-05T02:04:05;15.10;77.50
19232;DHT22;9750;48.730;10.294;2023-06-05T02:06:32;15.10;77.80
19232;DHT22;9750;48.730;10.294;2023-06-05T02:09:09;15.10;77.90
19232;DHT22;9750;48.730;10.294;2023-06-05T02:11:38;15.00;77.90
19232;DHT22;9750;48.730;10.294;2023-06-05T02:14:09;15.00;77.60
19232;DHT22;9750;48.730;10.294;2023-06-05T02:16:40;15.00;77.40
19232;DHT22;9750;48.730;10.294;2023-06-05T02:19:08;15.00;77.70
19232;DHT22;9750;48.730;10.294;2023-06-05T02:21:36;15.00;77.80
19232;DHT22;9750;48.730;10.294;2023-06-05T02:24:04;14.90;77.70
19232;DHT22;9750;48.730;10.294;2023-06-05T02:26:32;14.90;77.70
19232;DHT22;9750;48.730;10.294;2023-06-05T02:29:00;14.90;77.70
19232;DHT22;9750;48.730;10.294;2023-06-05T02:31:28;14.90;78.40
19232;DHT22;9750;48.730;10.294;2023-06-05T02:33:56;14.80;78.20
19232;DHT22;9750;48.730;10.294;2023-06-05T02:36:23;14.80;78.50
19232;DHT22;9750;48.730;10.294;2023-06-05T02:38:51;14.70;78.50
19232;DHT22;9750;48.730;10.294;2023-06-05T02:41:18;14.80;78.50
19232;DHT22;9750;48.730;10.294;2023-06-05T02:43:47;14.80;78.80
19232;DHT22;9750;48.730;10.294;2023-06-05T02:46:14;14.80;78.60
19232;DHT22;9750;48.730;10.294;2023-06-05T02:48:43;14.70;79.20
19232;DHT22;9750;48.730;10.294;2023-06-05T02:51:10;14.70;78.70
19232;DHT22;9750;48.730;10.294;2023-06-05T02:53:37;14.70;79.20
19232;DHT22;9750;48.730;10.294;2023-06-05T02:56:05;14.60;79.20
19232;DHT22;9750;48.730;10.294;2023-06-05T02:58:32;14.60;79.10
19232;DHT22;9750;48.730;10.294;2023-06-05T03:01:00;14.60;79.40
19232;DHT22;9750;48.730;10.294;2023-06-05T03:03:30;14.60;79.20
19232;DHT22;9750;48.730;10.294;2023-06-05T03:06:00;14.50;79.70
19232;DHT22;9750;48.730;10.294;2023-06-05T03:08:30;14.50;79.30
19232;DHT22;9750;48.730;10.294;2023-06-05T03:10:59;14.50;79.50
19232;DHT22;9750;48.730;10.294;2023-06-05T03:13:26;14.40;80.10
19232;DHT22;9750;48.730;10.294;2023-06-05T03:15:54;14.40;80.20
19232;DHT22;9750;48.730;10.294;2023-06-05T03:18:23;14.40;80.00
19232;DHT22;9750;48.730;10.294;2023-06-05T03:20:51;14.40;80.20
19232;DHT22;9750;48.730;10.294;2023-06-05T03:23:22;14.40;79.90
19232;DHT22;9750;48.730;10.294;2023-06-05T03:25:50;14.40;79.90
19232;DHT22;9750;48.730;10.294;2023-06-05T03:28:18;14.30;80.10
19232;DHT22;9750;48.730;10.294;2023-06-05T03:30:46;14.30;80.00
19232;DHT22;9750;48.730;10.294;2023-06-05T03:33:13;14.30;80.70
19232;DHT22;9750;48.730;10.294;2023-06-05T03:35:41;14.30;80.20
19232;DHT22;9750;48.730;10.294;2023-06-05T03:38:12;14.30;81.00
19232;DHT22;9750;48.730;10.294;2023-06-05T03:40:40;14.30;80.30
19232;DHT22;9750;48.730;10.294;2023-06-05T03:43:08;14.30;80.20
19232;DHT22;9750;48.730;10.294;2023-06-05T03:45:36;14.30;79.30
19232;DHT22;9750;48.730;10.294;2023-06-05T03:48:04;14.30;78.50
19232;DHT22;9750;48.730;10.294;2023-06-05T03:50:32;14.40;78.70
19232;DHT22;9750;48.730;10.294;2023-06-05T03:53:02;14.40;78.20
19232;DHT22;9750;48.730;10.294;2023-06-05T03:55:30;14.40;77.80
19232;DHT22;9750;48.730;10.294;2023-06-05T03:58:09;14.50;77.70
19232;DHT22;9750;48.730;10.294;2023-06-05T04:00:39;14.50;77.20
19232;DHT22;9750;48.730;10.294;2023-06-05T04:03:07;14.50;77.20
19232;DHT22;9750;48.730;10.294;2023-06-05T04:05:37;14.50;77.40
19232;DHT22;9750;48.730;10.294;2023-06-05T04:08:04;14.60;76.90
19232;DHT22;9750;48.730;10.294;2023-06-05T04:10:32;14.60;76.70
19232;DHT22;9750;48.730;10.294;2023-06-05T04:12:59;14.60;76.40
19232;DHT22;9750;48.730;10.294;2023-06-05T04:15:28;14.60;77.40
19232;DHT22;9750;48.730;10.294;2023-06-05T04:17:55;14.60;77.00
19232;DHT22;9750;48.730;10.294;2023-06-05T04:20:23;14.60;77.20
19232;DHT22;9750;48.730;10.294;2023-06-05T04:22:50;14.70;78.50
19232;DHT22;9750;48.730;10.294;2023-06-05T04:25:17;14.70;77.90
19232;DHT22;9750;48.730;10.294;2023-06-05T04:27:46;14.80;78.00
19232;DHT22;9750;48.730;10.294;2023-06-05T04:30:14;14.80;78.40
19232;DHT22;9750;48.730;10.294;2023-06-05T04:32:43;14.80;77.90
19232;DHT22;9750;48.730;10.294;2023-06-05T04:35:19;14.90;78.10
19232;DHT22;9750;48.730;10.294;2023-06-05T04:37:46;14.90;77.10
19232;DHT22;9750;48.730;10.294;2023-06-05T04:40:16;14.90;79.60
19232;DHT22;9750;48.730;10.294;2023-06-05T04:42:43;15.00;79.10
19232;DHT22;9750;48.730;10.294;2023-06-05T04:45:11;15.00;77.40
19232;DHT22;9750;48.730;10.294;2023-06-05T04:47:38;15.10;77.20
19232;DHT22;9750;48.730;10.294;2023-06-05T04:50:08;15.10;77.60
19232;DHT22;9750;48.730;10.294;2023-06-05T04:52:36;15.10;77.20
19232;DHT22;9750;48.730;10.294;2023-06-05T04:55:06;15.10;77.00
19232;DHT22;9750;48.730;10.294;2023-06-05T04:57:33;15.20;77.90
19232;DHT22;9750;48.730;10.294;2023-06-05T05:00:01;15.20;80.30
19232;DHT22;9750;48.730;10.294;2023-06-05T05:02:33;15.20;80.50
19232;DHT22;9750;48.730;10.294;2023-06-05T05:05:00;15.30;80.70
19232;DHT22;9750;48.730;10.294;2023-06-05T05:07:29;15.30;80.80
19232;DHT22;9750;48.730;10.294;2023-06-05T05:09:56;15.40;81.90
19232;DHT22;9750;48.730;10.294;2023-06-05T05:12:24;15.50;82.50
19232;DHT22;9750;48.730;10.294;2023-06-05T05:14:51;15.50;83.00
19232;DHT22;9750;48.730;10.294;2023-06-05T05:17:18;15.60;83.30
19232;DHT22;9750;48.730;10.294;2023-06-05T05:19:46;15.60;82.50
19232;DHT22;9750;48.730;10.294;2023-06-05T05:22:13;15.60;81.80
19232;DHT22;9750;48.730;10.294;2023-06-05T05:24:42;15.60;81.20
19232;DHT22;9750;48.730;10.294;2023-06-05T05:27:10;15.60;82.20
19232;DHT22;9750;48.730;10.294;2023-06-05T05:29:37;15.60;83.20
19232;DHT22;9750;48.730;10.294;2023-06-05T05:32:04;15.60;82.00
19232;DHT22;9750;48.730;10.294;2023-06-05T05:34:32;15.60;80.60
19232;DHT22;9750;48.730;10.294;2023-06-05T05:37:00;15.60;79.80
19232;DHT22;9750;48.730;10.294;2023-06-05T05:39:29;15.50;78.40
19232;DHT22;9750;48.730;10.294;2023-06-05T05:41:58;15.60;79.60
19232;DHT22;9750;48.730;10.294;2023-06-05T05:44:28;15.60;80.00
19232;DHT22;9750;48.730;10.294;2023-06-05T05:46:55;15.70;80.20
19232;DHT22;9750;48.730;10.294;2023-06-05T05:49:22;15.70;79.50
19232;DHT22;9750;48.730;10.294;2023-06-05T05:51:50;15.80;80.30
19232;DHT22;9750;48.730;10.294;2023-06-05T05:54:18;15.80;80.60
19232;DHT22;9750;48.730;10.294;2023-06-05T05:56:45;15.90;81.40
19232;DHT22;9750;48.730;10.294;2023-06-05T05:59:14;15.90;80.60
19232;DHT22;9750;48.730;10.294;2023-06-05T06:01:42;15.90;81.30
19232;DHT22;9750;48.730;10.294;2023-06-05T06:04:09;16.00;81.50
19232;DHT22;9750;48.730;10.294;2023-06-05T06:06:36;16.00;80.90
19232;DHT22;9750;48.730;10.294;2023-06-05T06:09:05;16.00;80.60
19232;DHT22;9750;48.730;10.294;2023-06-05T06:11:36;16.10;80.00
19232;DHT22;9750;48.730;10.294;2023-06-05T06:14:03;16.20;80.30
19232;DHT22;9750;48.730;10.294;2023-06-05T06:16:32;16.30;80.50
19232;DHT22;9750;48.730;10.294;2023-06-05T06:18:59;16.40;79.40
19232;DHT22;9750;48.730;10.294;2023-06-05T06:21:26;16.50;80.50
19232;DHT22;9750;48.730;10.294;2023-06-05T06:23:53;16.60;80.80
19232;DHT22;9750;48.730;10.294;2023-06-05T06:26:21;16.70;79.60
19232;DHT22;9750;48.730;10.294;2023-06-05T06:28:48;16.70;78.90
19232;DHT22;9750;48.730;10.294;2023-06-05T06:31:15;16.80;78.90
19232;DHT22;9750;48.730;10.294;2023-06-05T06:33:44;16.80;79.00
19232;DHT22;9750;48.730;10.294;2023-06-05T06:36:11;16.90;79.50
19232;DHT22;9750;48.730;10.294;2023-06-05T06:38:39;16.90;79.50
19232;DHT22;9750;48.730;10.294;2023-06-05T06:41:06;17.00;79.70
19232;DHT22;9750;48.730;10.294;2023-06-05T06:43:34;17.10;79.50
19232;DHT22;9750;48.730;10.294;2023-06-05T06:46:02;17.20;78.70
19232;DHT22;9750;48.730;10.294;2023-06-05T06:48:30;17.20;78.80
19232;DHT22;9750;48.730;10.294;2023-06-05T06:50:59;17.30;79.40
19232;DHT22;9750;48.730;10.294;2023-06-05T06:53:29;17.40;80.60
19232;DHT22;9750;48.730;10.294;2023-06-05T06:55:56;17.40;80.10
19232;DHT22;9750;48.730;10.294;2023-06-05T06:58:24;17.50;81.30
19232;DHT22;9750;48.730;10.294;2023-06-05T07:00:52;17.60;80.20
19232;DHT22;9750;48.730;10.294;2023-06-05T07:03:20;17.60;80.00
19232;DHT22;9750;48.730;10.294;2023-06-05T07:05:49;17.60;80.40
19232;DHT22;9750;48.730;10.294;2023-06-05T07:08:19;17.60;80.00
19232;DHT22;9750;48.730;10.294;2023-06-05T07:10:46;17.70;80.30
19232;DHT22;9750;48.730;10.294;2023-06-05T07:13:14;17.70;80.40
19232;DHT22;9750;48.730;10.294;2023-06-05T07:15:41;17.70;80.00
19232;DHT22;9750;48.730;10.294;2023-06-05T07:18:08;17.80;80.30
19232;DHT22;9750;48.730;10.294;2023-06-05T07:20:36;17.80;80.00
19232;DHT22;9750;48.730;10.294;2023-06-05T07:23:03;17.80;79.60
19232;DHT22;9750;48.730;10.294;2023-06-05T07:25:32;17.90;79.80
19232;DHT22;9750;48.730;10.294;2023-06-05T07:27:59;18.00;80.80
19232;DHT22;9750;48.730;10.294;2023-06-05T07:30:27;18.00;81.00
19232;DHT22;9750;48.730;10.294;2023-06-05T07:32:54;18.10;79.10
19232;DHT22;9750;48.730;10.294;2023-06-05T07:35:22;18.20;80.10
19232;DHT22;9750;48.730;10.294;2023-06-05T07:37:50;18.20;79.60
19232;DHT22;9750;48.730;10.294;2023-06-05T07:40:17;18.20;79.40
19232;DHT22;9750;48.730;10.294;2023-06-05T07:42:46;18.30;80.30
19232;DHT22;9750;48.730;10.294;2023-06-05T07:45:14;18.30;81.80
19232;DHT22;9750;48.730;10.294;2023-06-05T07:47:41;18.40;82.30
19232;DHT22;9750;48.730;10.294;2023-06-05T07:50:09;18.40;79.90
19232;DHT22;9750;48.730;10.294;2023-06-05T07:52:36;18.40;79.70
19232;DHT22;9750;48.730;10.294;2023-06-05T07:55:04;18.50;81.20
19232;DHT22;9750;48.730;10.294;2023-06-05T07:57:33;18.50;81.40
19232;DHT22;9750;48.730;10.294;2023-06-05T08:00:03;18.60;81.40
19232;DHT22;9750;48.730;10.294;2023-06-05T08:02:35;18.70;81.00
19232;DHT22;9750;48.730;10.294;2023-06-05T08:05:05;18.70;80.90
19232;DHT22;9750;48.730;10.294;2023-06-05T08:07:33;18.70;79.90
19232;DHT22;9750;48.730;10.294;2023-06-05T08:10:00;18.80;79.10
19232;DHT22;9750;48.730;10.294;2023-06-05T08:12:27;18.80;79.60
19232;DHT22;9750;48.730;10.294;2023-06-05T08:14:55;18.90;80.00
19232;DHT22;9750;48.730;10.294;2023-06-05T08:17:23;18.90;79.50
19232;DHT22;9750;48.730;10.294;2023-06-05T08:19:51;19.00;79.80
19232;DHT22;9750;48.730;10.294;2023-06-05T08:22:20;19.10;79.20
19232;DHT22;9750;48.730;10.294;2023-06-05T08:24:49;19.10;79.20
19232;DHT22;9750;48.730;10.294;2023-06-05T08:27:19;19.20;78.40
19232;DHT22;9750;48.730;10.294;2023-06-05T08:29:46;19.30;77.90
19232;DHT22;9750;48.730;10.294;2023-06-05T08:32:13;19.30;75.80
19232;DHT22;9750;48.730;10.294;2023-06-05T08:34:44;19.40;76.20
19232;DHT22;9750;48.730;10.294;2023-06-05T08:37:12;19.50;76.00
19232;DHT22;9750;48.730;10.294;2023-06-05T08:39:39;19.50;75.60
19232;DHT22;9750;48.730;10.294;2023-06-05T08:42:06;19.60;76.20
19232;DHT22;9750;48.730;10.294;2023-06-05T08:44:33;19.60;75.00
19232;DHT22;9750;48.730;10.294;2023-06-05T08:47:02;19.70;75.40
19232;DHT22;9750;48.730;10.294;2023-06-05T08:49:30;19.70;76.00
19232;DHT22;9750;48.730;10.294;2023-06-05T08:52:06;19.80;77.00
19232;DHT22;9750;48.730;10.294;2023-06-05T08:54:36;19.90;74.80
19232;DHT22;9750;48.730;10.294;2023-06-05T08:57:05;19.90;74.30
19232;DHT22;9750;48.730;10.294;2023-06-05T08:59:33;19.90;74.40
19232;DHT22;9750;48.730;10.294;2023-06-05T09:02:01;20.00;75.50
19232;DHT22;9750;48.730;10.294;2023-06-05T09:04:28;20.10;74.00
19232;DHT22;9750;48.730;10.294;2023-06-05T09:06:57;20.10;73.80
19232;DHT22;9750;48.730;10.294;2023-06-05T09:09:26;20.10;74.10
19232;DHT22;9750;48.730;10.294;2023-06-05T09:12:03;20.20;74.50
19232;DHT22;9750;48.730;10.294;2023-06-05T09:14:31;20.20;74.80
19232;DHT22;9750;48.730;10.294;2023-06-05T09:17:00;20.20;75.30
19232;DHT22;9750;48.730;10.294;2023-06-05T09:19:36;20.30;74.50
19232;DHT22;9750;48.730;10.294;2023-06-05T09:22:05;20.30;74.20
19232;DHT22;9750;48.730;10.294;2023-06-05T09:24:34;20.30;74.10
19232;DHT22;9750;48.730;10.294;2023-06-05T09:27:03;20.40;75.70
19232;DHT22;9750;48.730;10.294;2023-06-05T09:29:35;20.50;72.90
19232;DHT22;9750;48.730;10.294;2023-06-05T09:32:05;20.50;73.10
19232;DHT22;9750;48.730;10.294;2023-06-05T09:34:34;20.50;73.60
19232;DHT22;9750;48.730;10.294;2023-06-05T09:37:03;20.50;71.90
19232;DHT22;9750;48.730;10.294;2023-06-05T09:39:35;20.50;72.30
19232;DHT22;9750;48.730;10.294;2023-06-05T09:42:03;20.50;71.10
19232;DHT22;9750;48.730;10.294;2023-06-05T09:44:31;20.60;71.60
19232;DHT22;9750;48.730;10.294;2023-06-05T09:47:06;20.70;71.10
19232;DHT22;9750;48.730;10.294;2023-06-05T09:49:46;20.80;70.30
19232;DHT22;9750;48.730;10.294;2023-06-05T09:52:20;20.90;70.70
19232;DHT22;9750;48.730;10.294;2023-06-05T09:54:56;20.90;69.70
19232;DHT22;9750;48.730;10.294;2023-06-05T09:57:29;21.00;70.20
19232;DHT22;9750;48.730;10.294;2023-06-05T10:00:02;21.00;70.40
19232;DHT22;9750;48.730;10.294;2023-06-05T10:02:42;21.10;72.20
19232;DHT22;9750;48.730;10.294;2023-06-05T10:05:15;21.10;71.60
19232;DHT22;9750;48.730;10.294;2023-06-05T10:07:44;21.10;70.70
19232;DHT22;9750;48.730;10.294;2023-06-05T10:10:15;21.20;70.10
19232;DHT22;9750;48.730;10.294;2023-06-05T10:12:42;21.30;68.70
19232;DHT22;9750;48.730;10.294;2023-06-05T10:15:11;21.20;68.40
19232;DHT22;9750;48.730;10.294;2023-06-05T10:17:40;21.30;68.80
19232;DHT22;9750;48.730;10.294;2023-06-05T10:20:08;21.40;67.50
19232;DHT22;9750;48.730;10.294;2023-06-05T10:22:40;21.40;68.10
19232;DHT22;9750;48.730;10.294;2023-06-05T10:25:09;21.50;69.10
19232;DHT22;9750;48.730;10.294;2023-06-05T10:28:02;21.60;68.10
19232;DHT22;9750;48.730;10.294;2023-06-05T10:34:13;21.60;66.20
19232;DHT22;9750;48.730;10.294;2023-06-05T10:37:15;21.60;67.20
19232;DHT22;9750;48.730;10.294;2023-06-05T10:39:48;21.70;66.20
19232;DHT22;9750;48.730;10.294;2023-06-05T10:42:23;21.60;65.10
19232;DHT22;9750;48.730;10.294;2023-06-05T10:44:52;21.50;66.00
19232;DHT22;9750;48.730;10.294;2023-06-05T10:47:50;21.60;66.20
19232;DHT22;9750;48.730;10.294;2023-06-05T10:50:25;21.70;65.60
19232;DHT22;9750;48.730;10.294;2023-06-05T10:52:55;21.70;63.30
19232;DHT22;9750;48.730;10.294;2023-06-05T10:55:26;21.70;64.70
19232;DHT22;9750;48.730;10.294;2023-06-05T10:58:13;21.80;65.00
19232;DHT22;9750;48.730;10.294;2023-06-05T11:14:04;22.10;65.00
19232;DHT22;9750;48.730;10.294;2023-06-05T11:17:01;22.30;64.40
19232;DHT22;9750;48.730;10.294;2023-06-05T11:41:06;22.90;58.50
19232;DHT22;9750;48.730;10.294;2023-06-05T11:43:41;22.90;57.90
19232;DHT22;9750;48.730;10.294;2023-06-05T11:46:09;22.90;60.30
19232;DHT22;9750;48.730;10.294;2023-06-05T11:48:43;22.90;58.80
19232;DHT22;9750;48.730;10.294;2023-06-05T11:51:11;22.90;59.90
19232;DHT22;9750;48.730;10.294;2023-06-05T11:53:45;23.00;59.70
19232;DHT22;9750;48.730;10.294;2023-06-05T11:56:16;23.10;60.80
19232;DHT22;9750;48.730;10.294;2023-06-05T11:58:44;23.10;60.10
19232;DHT22;9750;48.730;10.294;2023-06-05T12:01:14;23.20;59.20
19232;DHT22;9750;48.730;10.294;2023-06-05T12:03:43;23.20;59.30
19232;DHT22;9750;48.730;10.294;2023-06-05T12:06:11;23.30;59.20
19232;DHT22;9750;48.730;10.294;2023-06-05T12:08:39;23.40;60.60
19232;DHT22;9750;48.730;10.294;2023-06-05T12:11:22;23.40;62.00
19232;DHT22;9750;48.730;10.294;2023-06-05T12:13:56;23.30;60.30
19232;DHT22;9750;48.730;10.294;2023-06-05T12:16:38;23.30;62.00
19232;DHT22;9750;48.730;10.294;2023-06-05T12:19:14;23.30;60.80
19232;DHT22;9750;48.730;10.294;2023-06-05T12:21:43;23.30;60.50
19232;DHT22;9750;48.730;10.294;2023-06-05T12:24:11;23.40;60.70
19232;DHT22;9750;48.730;10.294;2023-06-05T12:26:50;23.50;59.10
19232;DHT22;9750;48.730;10.294;2023-06-05T12:29:19;23.60;60.30
19232;DHT22;9750;48.730;10.294;2023-06-05T12:31:50;23.60;60.40
19232;DHT22;9750;48.730;10.294;2023-06-05T12:34:18;23.70;59.80
19232;DHT22;9750;48.730;10.294;2023-06-05T12:36:45;23.70;59.00
19232;DHT22;9750;48.730;10.294;2023-06-05T12:39:15;23.80;59.20
19232;DHT22;9750;48.730;10.294;2023-06-05T12:41:45;23.80;59.80
19232;DHT22;9750;48.730;10.294;2023-06-05T12:44:14;23.70;57.70
19232;DHT22;9750;48.730;10.294;2023-06-05T12:46:50;23.70;57.20
19232;DHT22;9750;48.730;10.294;2023-06-05T12:49:21;23.70;57.20
19232;DHT22;9750;48.730;10.294;2023-06-05T12:51:48;23.80;57.60
19232;DHT22;9750;48.730;10.294;2023-06-05T12:54:16;23.90;56.50
19232;DHT22;9750;48.730;10.294;2023-06-05T12:56:47;24.00;57.20
19232;DHT22;9750;48.730;10.294;2023-06-05T12:59:16;24.10;56.00
19232;DHT22;9750;48.730;10.294;2023-06-05T13:01:46;24.00;56.70
19232;DHT22;9750;48.730;10.294;2023-06-05T13:04:13;24.00;57.00
19232;DHT22;9750;48.730;10.294;2023-06-05T13:06:43;24.00;58.90
19232;DHT22;9750;48.730;10.294;2023-06-05T13:09:15;24.10;57.40
19232;DHT22;9750;48.730;10.294;2023-06-05T13:11:51;24.10;58.00
19232;DHT22;9750;48.730;10.294;2023-06-05T13:14:24;24.10;58.50
19232;DHT22;9750;48.730;10.294;2023-06-05T13:16:52;24.00;58.70
19232;DHT22;9750;48.730;10.294;2023-06-05T13:19:19;23.90;58.90
19232;DHT22;9750;48.730;10.294;2023-06-05T13:21:46;23.80;59.30
19232;DHT22;9750;48.730;10.294;2023-06-05T13:24:14;23.80;59.20
19232;DHT22;9750;48.730;10.294;2023-06-05T13:26:41;23.80;61.40
19232;DHT22;9750;48.730;10.294;2023-06-05T13:29:09;24.00;57.20
19232;DHT22;9750;48.730;10.294;2023-06-05T13:31:37;24.00;57.70
19232;DHT22;9750;48.730;10.294;2023-06-05T13:34:05;24.10;58.50
19232;DHT22;9750;48.730;10.294;2023-06-05T13:36:32;24.30;57.80
19232;DHT22;9750;48.730;10.294;2023-06-05T13:39:00;24.40;57.00
19232;DHT22;9750;48.730;10.294;2023-06-05T13:41:27;24.40;56.70
19232;DHT22;9750;48.730;10.294;2023-06-05T13:43:55;24.40;56.70
19232;DHT22;9750;48.730;10.294;2023-06-05T13:46:24;24.30;58.60
19232;DHT22;9750;48.730;10.294;2023-06-05T13:48:53;24.30;59.90
19232;DHT22;9750;48.730;10.294;2023-06-05T13:51:22;24.20;59.90
19232;DHT22;9750;48.730;10.294;2023-06-05T13:53:49;24.10;59.40
19232;DHT22;9750;48.730;10.294;2023-06-05T13:56:16;23.90;58.60
19232;DHT22;9750;48.730;10.294;2023-06-05T13:58:44;23.80;59.50
19232;DHT22;9750;48.730;10.294;2023-06-05T14:01:15;23.80;59.30
19232;DHT22;9750;48.730;10.294;2023-06-05T14:03:45;23.80;58.80
19232;DHT22;9750;48.730;10.294;2023-06-05T14:06:16;24.00;59.50
19232;DHT22;9750;48.730;10.294;2023-06-05T14:08:44;24.20;58.90
19232;DHT22;9750;48.730;10.294;2023-06-05T14:11:11;24.30;59.30
19232;DHT22;9750;48.730;10.294;2023-06-05T14:13:38;24.40;59.00
19232;DHT22;9750;48.730;10.294;2023-06-05T14:16:07;24.50;58.80
19232;DHT22;9750;48.730;10.294;2023-06-05T14:18:36;24.50;59.40
19232;DHT22;9750;48.730;10.294;2023-06-05T14:21:03;24.40;59.60
19232;DHT22;9750;48.730;10.294;2023-06-05T14:23:32;24.30;59.60
19232;DHT22;9750;48.730;10.294;2023-06-05T14:26:02;24.20;59.50
19232;DHT22;9750;48.730;10.294;2023-06-05T14:28:29;24.10;59.30
19232;DHT22;9750;48.730;10.294;2023-06-05T14:30:59;24.20;59.80
19232;DHT22;9750;48.730;10.294;2023-06-05T14:33:26;24.40;59.00
19232;DHT22;9750;48.730;10.294;2023-06-05T14:35:53;24.50;58.20
19232;DHT22;9750;48.730;10.294;2023-06-05T14:38:21;24.60;57.60
19232;DHT22;9750;48.730;10.294;2023-06-05T14:40:50;24.60;58.10
19232;DHT22;9750;48.730;10.294;2023-06-05T14:43:18;24.70;58.20
19232;DHT22;9750;48.730;10.294;2023-06-05T14:45:46;24.70;59.50
19232;DHT22;9750;48.730;10.294;2023-06-05T14:48:13;24.60;59.40
19232;DHT22;9750;48.730;10.294;2023-06-05T14:50:43;24.60;60.20
19232;DHT22;9750;48.730;10.294;2023-06-05T14:53:12;24.70;58.70
19232;DHT22;9750;48.730;10.294;2023-06-05T14:55:39;24.70;58.20
19232;DHT22;9750;48.730;10.294;2023-06-05T14:58:08;24.70;58.00
19232;DHT22;9750;48.730;10.294;2023-06-05T15:00:36;24.70;59.30
19232;DHT22;9750;48.730;10.294;2023-06-05T15:03:04;24.70;58.80
19232;DHT22;9750;48.730;10.294;2023-06-05T15:05:31;24.70;58.70
19232;DHT22;9750;48.730;10.294;2023-06-05T15:08:20;24.70;58.90
19232;DHT22;9750;48.730;10.294;2023-06-05T15:10:49;24.70;59.50
19232;DHT22;9750;48.730;10.294;2023-06-05T15:13:17;24.80;56.90
19232;DHT22;9750;48.730;10.294;2023-06-05T15:15:47;24.80;56.40
19232;DHT22;9750;48.730;10.294;2023-06-05T15:18:15;24.80;55.80
19232;DHT22;9750;48.730;10.294;2023-06-05T15:20:42;24.80;55.00
19232;DHT22;9750;48.730;10.294;2023-06-05T15:23:09;24.70;56.00
19232;DHT22;9750;48.730;10.294;2023-06-05T15:25:37;24.80;56.90
19232;DHT22;9750;48.730;10.294;2023-06-05T15:28:04;24.70;57.00
19232;DHT22;9750;48.730;10.294;2023-06-05T15:30:33;24.70;58.50
19232;DHT22;9750;48.730;10.294;2023-06-05T15:33:00;24.70;57.10
19232;DHT22;9750;48.730;10.294;2023-06-05T15:35:28;24.80;57.10
19232;DHT22;9750;48.730;10.294;2023-06-05T15:38:04;24.80;57.10
19232;DHT22;9750;48.730;10.294;2023-06-05T15:40:31;24.80;57.60
19232;DHT22;9750;48.730;10.294;2023-06-05T15:43:04;24.80;57.80
19232;DHT22;9750;48.730;10.294;2023-06-05T15:45:34;24.90;58.30
19232;DHT22;9750;48.730;10.294;2023-06-05T15:48:02;25.00;58.10
19232;DHT22;9750;48.730;10.294;2023-06-05T15:50:29;25.10;57.90
19232;DHT22;9750;48.730;10.294;2023-06-05T15:52:58;25.10;57.90
19232;DHT22;9750;48.730;10.294;2023-06-05T15:55:25;25.20;58.60
19232;DHT22;9750;48.730;10.294;2023-06-05T15:57:53;25.10;58.70
19232;DHT22;9750;48.730;10.294;2023-06-05T16:00:22;24.90;59.40
19232;DHT22;9750;48.730;10.294;2023-06-05T16:02:52;24.80;59.90
19232;DHT22;9750;48.730;10.294;2023-06-05T16:05:19;24.70;59.80
19232;DHT22;9750;48.730;10.294;2023-06-05T16:07:47;24.60;60.80
19232;DHT22;9750;48.730;10.294;2023-06-05T16:10:15;24.50;59.30
19232;DHT22;9750;48.730;10.294;2023-06-05T16:12:42;24.40;59.80
19232;DHT22;9750;48.730;10.294;2023-06-05T16:15:10;24.40;59.60
19232;DHT22;9750;48.730;10.294;2023-06-05T16:17:53;24.40;59.50
19232;DHT22;9750;48.730;10.294;2023-06-05T16:20:22;24.60;59.20
19232;DHT22;9750;48.730;10.294;2023-06-05T16:22:49;24.80;60.20
19232;DHT22;9750;48.730;10.294;2023-06-05T16:25:16;25.10;60.20